createdAt,value
2022-10-24T00:01:29.469Z,89.90
2022-10-24T00:03:57.940Z,89.68
2022-10-24T00:06:25.712Z,89.56
2022-10-24T00:08:53.408Z,89.75
2022-10-24T00:11:27.228Z,89.96
2022-10-24T00:13:56.833Z,90.03
2022-10-24T00:16:27.838Z,89.67
2022-10-24T00:18:55.494Z,89.82
2022-10-24T00:21:23.267Z,89.61
2022-10-24T00:23:51.137Z,89.50
2022-10-24T00:26:18.781Z,89.42
2022-10-24T00:28:46.495Z,89.61
2022-10-24T00:31:17.823Z,89.98
2022-10-24T00:33:46.371Z,89.82
2022-10-24T00:36:16.994Z,89.56
2022-10-24T00:38:44.837Z,89.64
2022-10-24T00:41:20.771Z,89.60
2022-10-24T00:43:48.836Z,89.67
2022-10-24T00:46:19.790Z,89.52
2022-10-24T00:48:51.912Z,89.56
2022-10-24T00:51:30.609Z,89.41
2022-10-24T00:54:02.869Z,89.63
2022-10-24T00:56:41.887Z,89.40
2022-10-24T00:59:12.652Z,89.32
2022-10-24T01:01:42.757Z,89.23
2022-10-24T01:04:13.523Z,89.36
2022-10-24T01:07:03.325Z,89.29
2022-10-24T01:09:48.016Z,89.58
2022-10-24T01:12:42.332Z,89.28
2022-10-24T01:15:17.497Z,89.03
2022-10-24T01:18:03.300Z,88.89
2022-10-24T01:20:40.399Z,89.03
2022-10-24T01:23:35.448Z,89.20
2022-10-24T01:26:12.518Z,89.35
2022-10-24T01:28:54.807Z,89.87
2022-10-24T01:31:35.571Z,89.21
2022-10-24T01:34:10.252Z,89.04
2022-10-24T01:37:03.862Z,89.51
2022-10-24T01:39:39.241Z,89.52
2022-10-24T01:42:09.364Z,89.76
2022-10-24T01:44:44.210Z,89.71
2022-10-24T01:47:19.784Z,89.56
2022-10-24T01:49:56.884Z,89.62
2022-10-24T01:52:30.195Z,89.36
2022-10-24T01:54:57.886Z,89.47
2022-10-24T01:57:30.490Z,89.71
2022-10-24T01:59:58.276Z,89.59
2022-10-24T02:02:38.554Z,89.93
2022-10-24T02:05:34.756Z,89.72
2022-10-24T02:08:08.770Z,89.61
2022-10-24T02:10:45.362Z,89.29
2022-10-24T02:13:23.597Z,89.63
2022-10-24T02:15:55.543Z,90.31
2022-10-24T02:18:23.538Z,90.70
2022-10-24T02:20:56.101Z,90.57
2022-10-24T02:23:34.484Z,90.30
2022-10-24T02:26:09.566Z,90.40
2022-10-24T02:28:43.433Z,90.54
2022-10-24T02:31:21.800Z,90.69
2022-10-24T02:33:51.727Z,90.88
2022-10-24T02:36:25.377Z,90.88
2022-10-24T02:38:56.195Z,90.88
2022-10-24T02:41:32.442Z,90.34
2022-10-24T02:44:02.382Z,90.42
2022-10-24T02:46:31.608Z,90.78
2022-10-24T02:49:02.107Z,91.07
2022-10-24T02:51:33.336Z,91.20
2022-10-24T02:54:06.824Z,91.07
2022-10-24T02:56:37.558Z,90.98
2022-10-24T02:59:05.215Z,90.77
2022-10-24T03:01:33.167Z,90.69
2022-10-24T03:04:00.834Z,90.93
2022-10-24T03:06:28.591Z,91.06
2022-10-24T03:08:56.625Z,91.14
2022-10-24T03:11:24.582Z,91.25
2022-10-24T03:13:52.812Z,90.89
2022-10-24T03:16:20.460Z,90.75
2022-10-24T03:18:48.141Z,90.80
2022-10-24T03:21:15.752Z,91.24
2022-10-24T03:23:43.408Z,91.36
2022-10-24T03:26:11.049Z,91.19
2022-10-24T03:28:39.216Z,91.03
2022-10-24T03:31:07.048Z,90.86
2022-10-24T03:33:34.809Z,91.04
2022-10-24T03:36:02.675Z,91.04
2022-10-24T03:38:30.305Z,91.34
2022-10-24T03:40:58.035Z,91.46
2022-10-24T03:43:25.746Z,91.20
2022-10-24T03:45:53.346Z,91.26
2022-10-24T03:48:21.048Z,91.37
2022-10-24T03:50:48.730Z,91.69
2022-10-24T03:53:16.330Z,91.55
2022-10-24T03:55:44.024Z,91.94
2022-10-24T03:58:11.683Z,91.86
2022-10-24T04:00:40.273Z,91.62
2022-10-24T04:03:09.138Z,91.34
2022-10-24T04:08:10.301Z,91.84
2022-10-24T04:10:37.961Z,91.84
2022-10-24T04:13:05.559Z,91.72
2022-10-24T04:15:33.268Z,91.68
2022-10-24T04:18:00.927Z,91.36
2022-10-24T04:20:28.794Z,91.22
2022-10-24T04:22:57.185Z,91.33
2022-10-24T04:25:26.079Z,91.61
2022-10-24T04:27:53.693Z,91.64
2022-10-24T04:30:21.400Z,91.63
2022-10-24T04:32:49.005Z,91.94
2022-10-24T04:35:16.788Z,91.71
2022-10-24T04:37:44.432Z,91.53
2022-10-24T04:40:12.131Z,91.52
2022-10-24T04:42:40.215Z,91.32
2022-10-24T04:45:08.831Z,91.20
2022-10-24T04:47:36.652Z,91.51
2022-10-24T04:50:05.164Z,91.57
2022-10-24T04:52:32.810Z,91.88
2022-10-24T04:55:00.479Z,91.42
2022-10-24T04:57:28.122Z,91.15
2022-10-24T04:59:56.245Z,91.05
2022-10-24T05:02:23.992Z,91.18
2022-10-24T05:04:51.748Z,91.51
2022-10-24T05:07:21.559Z,91.53
2022-10-24T05:09:49.228Z,91.68
2022-10-24T05:12:16.932Z,91.53
2022-10-24T05:14:47.099Z,91.37
2022-10-24T05:17:14.799Z,91.68
2022-10-24T05:19:42.457Z,91.44
2022-10-24T05:22:11.004Z,91.71
2022-10-24T05:24:39.136Z,91.68
2022-10-24T05:27:06.906Z,91.76
2022-10-24T05:29:34.700Z,91.60
2022-10-24T05:32:02.466Z,91.47
2022-10-24T05:34:30.133Z,91.41
2022-10-24T05:36:58.749Z,91.58
2022-10-24T05:39:26.378Z,91.58
2022-10-24T05:41:55.350Z,91.86
2022-10-24T05:44:23.393Z,91.55
2022-10-24T05:46:51.141Z,91.36
2022-10-24T05:49:18.941Z,91.12
2022-10-24T05:51:46.639Z,91.22
2022-10-24T05:54:14.317Z,91.37
2022-10-24T05:56:41.961Z,91.76
2022-10-24T05:59:10.109Z,91.64
2022-10-24T06:01:38.281Z,91.54
2022-10-24T06:04:07.812Z,91.40
2022-10-24T06:06:43.049Z,91.29
2022-10-24T06:09:12.135Z,91.16
2022-10-24T06:11:40.085Z,91.03
2022-10-24T06:14:08.049Z,91.12
2022-10-24T06:16:36.198Z,91.36
2022-10-24T06:19:04.012Z,91.38
2022-10-24T06:21:31.946Z,90.90
2022-10-24T06:23:59.690Z,91.08
2022-10-24T06:26:27.401Z,90.99
2022-10-24T06:28:55.316Z,91.19
2022-10-24T06:31:22.987Z,91.30
2022-10-24T06:33:50.869Z,91.24
2022-10-24T06:36:18.612Z,91.00
2022-10-24T06:38:46.347Z,90.91
2022-10-24T06:41:15.084Z,90.93
2022-10-24T06:43:43.265Z,91.14
2022-10-24T06:46:14.043Z,91.12
2022-10-24T06:48:41.970Z,91.22
2022-10-24T06:51:09.677Z,90.97
2022-10-24T06:53:37.504Z,90.76
2022-10-24T06:56:06.468Z,90.52
2022-10-24T06:58:36.174Z,90.48
2022-10-24T07:01:09.791Z,90.76
2022-10-24T07:03:38.642Z,90.95
2022-10-24T07:06:24.226Z,91.12
2022-10-24T07:08:54.751Z,90.98
2022-10-24T07:11:22.647Z,90.84
2022-10-24T07:13:51.196Z,90.71
2022-10-24T07:16:19.677Z,90.95
2022-10-24T07:18:48.245Z,90.94
2022-10-24T07:21:24.564Z,91.13
2022-10-24T07:23:53.407Z,91.31
2022-10-24T07:26:22.484Z,90.91
2022-10-24T07:28:54.715Z,90.81
2022-10-24T07:31:25.065Z,90.46
2022-10-24T07:33:52.998Z,90.47
2022-10-24T07:36:23.051Z,90.49
2022-10-24T07:38:53.455Z,90.51
2022-10-24T07:41:21.309Z,90.43
2022-10-24T07:43:49.514Z,90.30
2022-10-24T07:46:19.217Z,90.34
2022-10-24T07:48:49.865Z,90.17
2022-10-24T07:51:18.553Z,90.17
2022-10-24T07:53:46.275Z,90.25
2022-10-24T07:56:15.720Z,90.17
2022-10-24T07:58:44.212Z,90.12
2022-10-24T08:01:16.085Z,89.80
2022-10-24T08:03:43.900Z,89.73
2022-10-24T08:06:20.700Z,89.86
2022-10-24T08:08:48.879Z,90.10
2022-10-24T08:11:22.122Z,90.28
2022-10-24T08:13:51.280Z,90.28
2022-10-24T08:16:21.123Z,89.88
2022-10-24T08:18:51.429Z,89.60
2022-10-24T08:21:21.460Z,89.40
2022-10-24T08:23:51.952Z,89.41
2022-10-24T08:26:22.362Z,89.43
2022-10-24T08:28:50.283Z,89.41
2022-10-24T08:31:20.675Z,89.34
2022-10-24T08:33:51.736Z,89.22
2022-10-24T08:36:25.411Z,88.89
2022-10-24T08:38:53.406Z,88.83
2022-10-24T08:41:20.980Z,88.43
2022-10-24T08:43:48.653Z,88.41
2022-10-24T08:46:28.520Z,88.47
2022-10-24T08:49:05.372Z,88.38
2022-10-24T08:51:42.165Z,88.30
2022-10-24T08:54:22.907Z,87.97
2022-10-24T08:56:52.542Z,87.69
2022-10-24T08:59:21.047Z,87.31
2022-10-24T09:01:53.342Z,86.86
2022-10-24T09:04:24.961Z,86.03
2022-10-24T09:06:55.143Z,85.09
2022-10-24T09:09:31.827Z,84.96
2022-10-24T09:12:14.137Z,83.93
2022-10-24T09:14:44.587Z,82.73
2022-10-24T09:17:30.458Z,82.72
2022-10-24T09:20:03.780Z,82.24
2022-10-24T09:22:35.044Z,81.99
2022-10-24T09:25:13.989Z,81.25
2022-10-24T09:27:42.718Z,80.85
2022-10-24T09:30:29.957Z,80.39
2022-10-24T09:33:12.892Z,79.96
2022-10-24T09:35:42.694Z,79.99
2022-10-24T09:38:22.514Z,79.63
2022-10-24T09:40:52.471Z,79.72
2022-10-24T09:43:32.449Z,79.28
2022-10-24T09:46:12.689Z,79.81
2022-10-24T09:48:49.880Z,80.36
2022-10-24T09:51:25.294Z,80.03
2022-10-24T09:54:00.900Z,79.59
2022-10-24T09:56:38.131Z,79.65
2022-10-24T09:59:31.090Z,79.11
2022-10-24T10:02:35.180Z,79.67
2022-10-24T10:05:03.186Z,79.13
2022-10-24T10:07:35.141Z,78.47
2022-10-24T10:10:19.951Z,78.84
2022-10-24T10:12:57.710Z,79.34
2022-10-24T10:15:35.378Z,79.36
2022-10-24T10:18:21.922Z,78.84
2022-10-24T10:21:11.087Z,78.63
2022-10-24T10:23:49.560Z,77.91
2022-10-24T10:26:21.630Z,77.91
2022-10-24T10:29:19.117Z,77.55
2022-10-24T10:31:49.555Z,77.28
2022-10-24T10:34:24.882Z,77.27
2022-10-24T10:37:18.934Z,78.13
2022-10-24T10:40:17.562Z,78.11
2022-10-24T10:42:48.334Z,77.74
2022-10-24T10:45:46.842Z,77.14
2022-10-24T10:48:37.690Z,76.96
2022-10-24T10:51:20.776Z,76.71
2022-10-24T10:54:05.336Z,76.56
2022-10-24T10:56:52.209Z,76.28
2022-10-24T10:59:28.597Z,76.70
2022-10-24T11:02:31.117Z,76.97
2022-10-24T11:05:08.264Z,77.16
2022-10-24T11:07:50.947Z,76.64
2022-10-24T11:10:23.052Z,75.94
2022-10-24T11:12:51.201Z,75.26
2022-10-24T11:15:24.453Z,74.83
2022-10-24T11:17:58.298Z,75.16
2022-10-24T11:20:37.409Z,74.84
2022-10-24T11:23:14.214Z,74.53
2022-10-24T11:26:03.739Z,74.60
2022-10-24T11:28:50.004Z,74.58
2022-10-24T11:31:25.159Z,74.89
2022-10-24T11:34:04.376Z,74.65
2022-10-24T11:36:53.353Z,74.24
2022-10-24T11:39:34.788Z,74.04
2022-10-24T11:42:33.873Z,73.94
2022-10-24T11:45:10.616Z,73.77
2022-10-24T11:47:47.293Z,73.31
2022-10-24T11:50:39.736Z,72.83
2022-10-24T11:53:19.853Z,71.98
2022-10-24T11:55:54.697Z,71.73
2022-10-24T11:58:25.753Z,71.14
2022-10-24T12:01:27.586Z,69.60
2022-10-24T12:04:18.202Z,68.83
2022-10-24T12:06:50.846Z,69.29
2022-10-24T12:09:48.956Z,68.70
2022-10-24T12:13:04.231Z,68.30
2022-10-24T12:15:50.568Z,68.86
2022-10-24T12:18:24.124Z,68.75
2022-10-24T12:20:55.610Z,68.46
2022-10-24T12:23:29.094Z,68.61
2022-10-24T12:26:14.950Z,67.46
2022-10-24T12:28:43.572Z,68.32
2022-10-24T12:31:14.813Z,68.75
2022-10-24T12:33:44.787Z,68.39
2022-10-24T12:36:13.213Z,68.26
2022-10-24T12:38:41.134Z,68.91
2022-10-24T12:41:33.626Z,69.24
2022-10-24T12:44:25.316Z,68.91
2022-10-24T12:46:54.170Z,69.86
2022-10-24T12:49:33.129Z,70.07
2022-10-24T12:52:32.824Z,70.13
2022-10-24T12:55:00.455Z,70.35
2022-10-24T12:57:32.021Z,70.08
2022-10-24T13:00:01.577Z,69.31
2022-10-24T13:02:32.106Z,69.17
2022-10-24T13:05:07.869Z,69.17
2022-10-24T13:08:10.797Z,69.21
2022-10-24T13:10:54.087Z,69.00
2022-10-24T13:13:21.775Z,68.88
2022-10-24T13:16:08.213Z,69.23
2022-10-24T13:18:47.820Z,69.23
2022-10-24T13:21:18.659Z,69.36
2022-10-24T13:23:48.143Z,69.54
2022-10-24T13:27:12.651Z,69.65
2022-10-24T13:29:41.381Z,69.71
2022-10-24T13:32:12.034Z,69.91
2022-10-24T13:34:52.654Z,69.54
2022-10-24T13:37:23.307Z,70.09
2022-10-24T13:39:55.653Z,70.71
2022-10-24T13:42:37.605Z,71.12
2022-10-24T13:45:52.115Z,70.79
2022-10-24T13:48:21.629Z,70.52
2022-10-24T13:51:16.789Z,70.77
2022-10-24T13:53:50.307Z,70.46
2022-10-24T13:56:18.156Z,70.77
2022-10-24T13:58:46.190Z,70.74
2022-10-24T14:01:21.046Z,70.68
2022-10-24T14:03:50.241Z,70.66
2022-10-24T14:06:25.755Z,70.83
2022-10-24T14:09:06.532Z,70.86
2022-10-24T14:11:40.868Z,71.28
2022-10-24T14:14:46.338Z,71.79
2022-10-24T14:17:23.777Z,72.24
2022-10-24T14:19:56.900Z,72.78
2022-10-24T14:22:35.377Z,72.91
2022-10-24T14:25:03.831Z,72.79
2022-10-24T14:27:31.639Z,72.57
2022-10-24T14:30:04.756Z,72.64
2022-10-24T14:32:32.549Z,72.79
2022-10-24T14:37:36.923Z,72.87
2022-10-24T14:40:05.437Z,73.01
2022-10-24T14:42:33.666Z,73.12
2022-10-24T14:45:01.470Z,73.83
2022-10-24T14:47:29.495Z,74.23
2022-10-24T14:50:00.545Z,74.42
2022-10-24T14:52:39.095Z,74.44
2022-10-24T14:55:20.728Z,74.37
2022-10-24T14:57:51.215Z,74.53
2022-10-24T15:00:24.801Z,74.59
2022-10-24T15:02:56.802Z,74.74
2022-10-24T15:05:31.595Z,74.82
2022-10-24T15:08:21.658Z,74.95
2022-10-24T15:11:05.069Z,75.55
2022-10-24T15:13:48.000Z,76.19
2022-10-24T15:16:31.629Z,76.48
2022-10-24T15:18:59.384Z,76.58
2022-10-24T15:21:32.909Z,76.64
2022-10-24T15:24:02.191Z,76.71
2022-10-24T15:26:34.740Z,76.35
2022-10-24T15:29:07.707Z,77.56
2022-10-24T15:31:38.142Z,77.17
2022-10-24T15:34:08.785Z,77.66
2022-10-24T15:36:42.743Z,78.29
2022-10-24T15:39:10.323Z,78.68
2022-10-24T15:41:39.500Z,79.05
2022-10-24T15:44:17.118Z,79.05
2022-10-24T15:46:47.319Z,79.39
2022-10-24T15:49:15.051Z,79.15
2022-10-24T15:51:49.902Z,79.31
2022-10-24T15:54:21.826Z,79.56
2022-10-24T15:56:50.461Z,79.84
2022-10-24T15:59:19.960Z,79.71
2022-10-24T16:02:00.469Z,79.49
2022-10-24T16:04:28.672Z,79.59
2022-10-24T16:06:56.423Z,79.45
2022-10-24T16:09:31.313Z,79.70
2022-10-24T16:11:59.078Z,80.18
2022-10-24T16:14:28.008Z,80.35
2022-10-24T16:16:56.109Z,80.46
2022-10-24T16:19:26.591Z,81.07
2022-10-24T16:25:23.148Z,81.49
2022-10-24T16:27:51.067Z,81.55
2022-10-24T16:30:22.171Z,82.13
2022-10-24T16:32:51.079Z,81.85
2022-10-24T16:35:25.787Z,82.01
2022-10-24T16:37:54.900Z,81.70
2022-10-24T16:40:23.702Z,81.67
2022-10-24T16:42:53.210Z,82.15
2022-10-24T16:45:21.615Z,83.09
2022-10-24T16:47:49.602Z,83.31
2022-10-24T16:50:24.601Z,83.50
2022-10-24T16:52:54.036Z,83.23
2022-10-24T16:55:23.104Z,83.70
2022-10-24T16:57:51.102Z,83.81
2022-10-24T17:00:20.875Z,83.75
2022-10-24T17:02:51.283Z,83.95
2022-10-24T17:05:21.633Z,84.04
2022-10-24T17:07:50.080Z,84.11
2022-10-24T17:10:20.685Z,84.36
2022-10-24T17:12:52.091Z,84.25
2022-10-24T17:15:22.288Z,84.17
2022-10-24T17:17:50.603Z,84.45
2022-10-24T17:20:19.074Z,83.61
2022-10-24T17:22:46.987Z,83.32
2022-10-24T17:25:22.870Z,83.23
2022-10-24T17:27:50.867Z,83.08
2022-10-24T17:30:25.479Z,83.17
2022-10-24T17:32:53.577Z,83.13
2022-10-24T17:35:25.935Z,83.28
2022-10-24T17:38:11.725Z,83.34
2022-10-24T17:40:48.256Z,82.94
2022-10-24T17:43:27.309Z,83.52
2022-10-24T17:45:57.164Z,83.91
2022-10-24T17:48:25.714Z,84.54
2022-10-24T17:50:56.572Z,84.41
2022-10-24T17:53:24.447Z,84.30
2022-10-24T17:55:52.186Z,83.97
2022-10-24T17:58:19.962Z,83.58
2022-10-24T18:00:47.715Z,84.10
2022-10-24T18:03:15.632Z,84.36
2022-10-24T18:05:43.248Z,84.48
2022-10-24T18:08:12.232Z,84.38
2022-10-24T18:10:41.145Z,84.52
2022-10-24T18:13:09.737Z,84.34
2022-10-24T18:15:37.835Z,84.06
2022-10-24T18:18:05.894Z,84.11
2022-10-24T18:20:34.764Z,84.60
2022-10-24T18:23:02.667Z,84.88
2022-10-24T18:25:30.440Z,84.83
2022-10-24T18:27:58.222Z,84.40
2022-10-24T18:30:27.342Z,84.67
2022-10-24T18:32:55.054Z,84.36
2022-10-24T18:35:22.957Z,84.35
2022-10-24T18:40:23.997Z,85.57
2022-10-24T18:43:00.983Z,85.37
2022-10-24T18:45:29.422Z,85.12
2022-10-24T18:47:57.802Z,85.28
2022-10-24T18:50:26.146Z,85.18
2022-10-24T18:53:06.080Z,85.45
2022-10-24T18:55:35.496Z,85.41
2022-10-24T18:58:03.596Z,85.58
2022-10-24T19:00:33.014Z,85.87
2022-10-24T19:03:15.884Z,85.46
2022-10-24T19:05:55.243Z,85.20
2022-10-24T19:08:25.474Z,85.56
2022-10-24T19:10:56.511Z,85.81
2022-10-24T19:13:26.557Z,85.80
2022-10-24T19:16:04.483Z,85.77
2022-10-24T19:18:35.957Z,86.34
2022-10-24T19:21:06.822Z,86.16
2022-10-24T19:23:34.491Z,86.07
2022-10-24T19:26:02.138Z,86.01
2022-10-24T19:28:29.842Z,86.24
2022-10-24T19:30:57.526Z,86.40
2022-10-24T19:33:28.059Z,86.21
2022-10-24T19:35:56.122Z,86.29
2022-10-24T19:38:24.436Z,85.87
2022-10-24T19:40:54.046Z,86.08
2022-10-24T19:43:23.838Z,86.27
2022-10-24T19:46:07.501Z,86.01
2022-10-24T19:48:38.922Z,85.96
2022-10-24T19:51:12.776Z,85.60
2022-10-24T19:53:43.135Z,85.41
2022-10-24T19:56:14.917Z,85.49
2022-10-24T19:58:43.534Z,85.61
2022-10-24T20:01:13.708Z,85.56
2022-10-24T20:03:43.886Z,85.29
2022-10-24T20:06:12.920Z,85.00
2022-10-24T20:08:42.854Z,84.75
2022-10-24T20:11:10.521Z,84.99
2022-10-24T20:13:39.592Z,85.14
2022-10-24T20:16:08.225Z,84.99
2022-10-24T20:18:37.975Z,84.79
2022-10-24T20:21:10.399Z,84.58
2022-10-24T20:23:38.501Z,84.27
2022-10-24T20:26:10.518Z,84.13
2022-10-24T20:28:43.234Z,84.33
2022-10-24T20:31:21.550Z,84.59
2022-10-24T20:33:49.885Z,84.52
2022-10-24T20:36:18.160Z,84.22
2022-10-24T20:38:47.112Z,83.93
2022-10-24T20:41:14.798Z,83.82
2022-10-24T20:43:42.560Z,83.71
2022-10-24T20:46:10.673Z,83.96
2022-10-24T20:48:38.392Z,84.19
2022-10-24T20:51:09.016Z,84.22
2022-10-24T20:53:37.300Z,83.90
2022-10-24T20:56:06.601Z,83.72
2022-10-24T20:58:40.001Z,83.51
2022-10-24T21:01:12.467Z,83.57
2022-10-24T21:03:40.722Z,83.75
2022-10-24T21:06:34.837Z,84.01
2022-10-24T21:09:04.784Z,83.94
2022-10-24T21:11:33.768Z,83.84
2022-10-24T21:14:04.235Z,83.61
2022-10-24T21:16:32.683Z,83.20
2022-10-24T21:19:00.889Z,83.26
2022-10-24T21:21:28.853Z,83.47
2022-10-24T21:24:02.456Z,83.76
2022-10-24T21:26:38.297Z,83.70
2022-10-24T21:29:21.002Z,83.44
2022-10-24T21:31:55.801Z,83.25
2022-10-24T21:34:23.508Z,83.14
2022-10-24T21:36:51.140Z,83.26
2022-10-24T21:39:18.848Z,83.39
2022-10-24T21:41:46.781Z,83.41
2022-10-24T21:44:14.769Z,83.03
2022-10-24T21:46:43.152Z,82.70
2022-10-24T21:49:10.869Z,82.64
2022-10-24T21:51:41.399Z,82.70
2022-10-24T21:54:22.301Z,82.75
2022-10-24T21:56:50.195Z,83.13
2022-10-24T21:59:20.265Z,82.91
2022-10-24T22:01:50.252Z,82.72
2022-10-24T22:04:18.328Z,82.56
2022-10-24T22:06:46.802Z,82.43
2022-10-24T22:09:17.916Z,82.25
2022-10-24T22:11:45.954Z,82.54
2022-10-24T22:14:15.933Z,82.65
2022-10-24T22:16:44.305Z,82.58
2022-10-24T22:19:13.511Z,82.47
2022-10-24T22:21:42.602Z,82.32
2022-10-24T22:24:16.581Z,82.36
2022-10-24T22:26:44.496Z,82.17
2022-10-24T22:29:19.052Z,82.42
2022-10-24T22:31:48.074Z,82.71
2022-10-24T22:34:22.636Z,82.91
2022-10-24T22:36:59.398Z,82.78
2022-10-24T22:39:28.047Z,82.76
2022-10-24T22:41:56.272Z,82.74
2022-10-24T22:44:24.441Z,82.69
2022-10-24T22:47:17.730Z,82.74
2022-10-24T22:50:23.165Z,83.04
2022-10-24T22:52:51.343Z,83.09
2022-10-24T22:55:34.305Z,83.40
2022-10-24T22:58:02.665Z,83.32
2022-10-24T23:00:31.042Z,82.97
2022-10-24T23:03:12.728Z,82.86
2022-10-24T23:05:59.795Z,83.07
2022-10-24T23:08:40.890Z,83.36
2022-10-24T23:11:12.096Z,83.56
2022-10-24T23:13:43.274Z,83.69
2022-10-24T23:16:34.206Z,83.62
2022-10-24T23:19:12.113Z,83.50
2022-10-24T23:21:45.446Z,83.42
2022-10-24T23:24:16.882Z,83.38
2022-10-24T23:26:47.174Z,84.00
2022-10-24T23:29:26.542Z,84.36
2022-10-24T23:31:54.501Z,84.50
2022-10-24T23:34:22.449Z,84.32
2022-10-24T23:36:50.646Z,84.39
2022-10-24T23:39:18.491Z,84.37
2022-10-24T23:41:46.486Z,84.40
2022-10-24T23:44:14.307Z,84.31
2022-10-24T23:46:48.162Z,84.61
2022-10-24T23:49:26.007Z,85.09
2022-10-24T23:52:17.817Z,85.44
2022-10-24T23:54:45.839Z,85.42
2022-10-24T23:57:19.653Z,85.23
2022-10-24T23:59:47.375Z,85.13
